createdAt,value
2018-07-15T00:00:02.798Z,1013.61
2018-07-15T00:01:55.750Z,1013.61
2018-07-15T00:02:55.755Z,1013.60
2018-07-15T00:04:48.708Z,1013.64
2018-07-15T00:05:48.705Z,1013.61
2018-07-15T00:07:41.635Z,1013.60
2018-07-15T00:08:41.659Z,1013.57
2018-07-15T00:10:34.609Z,1013.57
2018-07-15T00:11:34.614Z,1013.56
2018-07-15T00:13:27.544Z,1013.57
2018-07-15T00:14:27.568Z,1013.54
2018-07-15T00:16:20.516Z,1013.54
2018-07-15T00:17:20.523Z,1013.54
2018-07-15T00:19:13.449Z,1013.57
2018-07-15T00:20:13.505Z,1013.52
2018-07-15T00:22:06.429Z,1013.52
2018-07-15T00:23:06.431Z,1013.50
2018-07-15T00:24:59.361Z,1013.48
2018-07-15T00:25:59.384Z,1013.52
2018-07-15T00:27:52.339Z,1013.51
2018-07-15T00:28:52.338Z,1013.51
2018-07-15T00:30:45.285Z,1013.53
2018-07-15T00:31:45.292Z,1013.54
2018-07-15T00:33:38.220Z,1013.53
2018-07-15T00:34:38.246Z,1013.51
2018-07-15T00:36:31.197Z,1013.52
2018-07-15T00:37:31.202Z,1013.48
2018-07-15T00:39:24.129Z,1013.50
2018-07-15T00:40:24.154Z,1013.45
2018-07-15T00:42:17.106Z,1013.45
2018-07-15T00:43:17.110Z,1013.42
2018-07-15T00:45:10.037Z,1013.48
2018-07-15T00:46:10.062Z,1013.49
2018-07-15T00:48:03.013Z,1013.49
2018-07-15T00:49:03.021Z,1013.50
2018-07-15T00:50:56.149Z,1013.51
2018-07-15T00:51:56.177Z,1013.57
2018-07-15T00:53:49.641Z,1013.52
2018-07-15T00:54:49.642Z,1013.52
2018-07-15T00:56:42.593Z,1013.57
2018-07-15T00:57:42.595Z,1013.57
2018-07-15T00:59:36.037Z,1013.56
2018-07-15T01:00:36.060Z,1013.57
2018-07-15T01:02:29.011Z,1013.59
2018-07-15T01:03:29.016Z,1013.59
2018-07-15T01:05:22.459Z,1013.56
2018-07-15T01:06:22.484Z,1013.60
2018-07-15T01:08:15.431Z,1013.61
2018-07-15T01:09:15.434Z,1013.61
2018-07-15T01:11:08.368Z,1013.57
2018-07-15T01:12:08.392Z,1013.57
2018-07-15T01:14:01.338Z,1013.56
2018-07-15T01:15:01.347Z,1013.55
2018-07-15T01:16:54.306Z,1013.55
2018-07-15T01:17:54.298Z,1013.54
2018-07-15T01:19:47.231Z,1013.57
2018-07-15T01:20:47.252Z,1013.55
2018-07-15T01:22:40.203Z,1013.53
2018-07-15T01:23:40.207Z,1013.57
2018-07-15T01:25:33.135Z,1013.56
2018-07-15T01:26:33.163Z,1013.52
2018-07-15T01:28:26.112Z,1013.54
2018-07-15T01:29:26.114Z,1013.51
2018-07-15T01:31:19.575Z,1013.46
2018-07-15T01:32:19.546Z,1013.48
2018-07-15T01:34:12.529Z,1013.44
2018-07-15T01:35:12.535Z,1013.40
2018-07-15T01:37:05.465Z,1013.42
2018-07-15T01:38:05.488Z,1013.40
2018-07-15T01:39:58.948Z,1013.41
2018-07-15T01:40:58.953Z,1013.41
2018-07-15T01:42:51.905Z,1013.42
2018-07-15T01:43:51.907Z,1013.39
2018-07-15T01:45:44.840Z,1013.42
2018-07-15T01:46:44.865Z,1013.40
2018-07-15T01:48:37.812Z,1013.42
2018-07-15T01:49:37.817Z,1013.41
2018-07-15T01:51:30.752Z,1013.39
2018-07-15T01:52:30.774Z,1013.38
2018-07-15T01:54:23.721Z,1013.37
2018-07-15T01:55:23.726Z,1013.38
2018-07-15T01:57:16.681Z,1013.34
2018-07-15T01:58:16.684Z,1013.31
2018-07-15T02:00:10.142Z,1013.31
2018-07-15T02:01:10.147Z,1013.29
2018-07-15T02:03:03.095Z,1013.30
2018-07-15T02:04:03.100Z,1013.30
2018-07-15T02:05:56.033Z,1013.30
2018-07-15T02:06:56.053Z,1013.29
2018-07-15T02:08:49.002Z,1013.29
2018-07-15T02:09:49.006Z,1013.26
2018-07-15T02:11:41.952Z,1013.27
2018-07-15T02:12:41.964Z,1013.29
2018-07-15T02:14:34.915Z,1013.23
2018-07-15T02:15:34.918Z,1013.27
2018-07-15T02:17:27.861Z,1013.24
2018-07-15T02:18:27.870Z,1013.24
2018-07-15T02:20:20.821Z,1013.24
2018-07-15T02:21:20.824Z,1013.26
2018-07-15T02:23:13.756Z,1013.21
2018-07-15T02:24:13.777Z,1013.22
2018-07-15T02:26:06.731Z,1013.21
2018-07-15T02:27:06.731Z,1013.24
2018-07-15T02:29:00.194Z,1013.25
2018-07-15T02:30:00.197Z,1013.27
2018-07-15T02:31:53.134Z,1013.26
2018-07-15T02:32:53.158Z,1013.28
2018-07-15T02:34:46.104Z,1013.27
2018-07-15T02:35:46.110Z,1013.29
2018-07-15T02:37:39.051Z,1013.30
2018-07-15T02:38:39.060Z,1013.29
2018-07-15T02:40:32.011Z,1013.26
2018-07-15T02:41:32.015Z,1013.25
2018-07-15T02:43:24.946Z,1013.26
2018-07-15T02:44:24.969Z,1013.25
2018-07-15T02:46:17.921Z,1013.25
2018-07-15T02:47:17.928Z,1013.26
2018-07-15T02:49:11.367Z,1013.25
2018-07-15T02:50:11.390Z,1013.24
2018-07-15T02:52:04.342Z,1013.27
2018-07-15T02:53:04.347Z,1013.27
2018-07-15T02:54:57.292Z,1013.26
2018-07-15T02:55:57.299Z,1013.25
2018-07-15T02:57:51.767Z,1013.25
2018-07-15T02:58:51.789Z,1013.23
2018-07-15T03:00:44.739Z,1013.19
2018-07-15T03:01:44.742Z,1013.24
2018-07-15T03:03:37.673Z,1013.17
2018-07-15T03:04:37.694Z,1013.19
2018-07-15T03:06:30.652Z,1013.22
2018-07-15T03:07:30.656Z,1013.19
2018-07-15T03:09:24.097Z,1013.20
2018-07-15T03:10:24.114Z,1013.19
2018-07-15T03:12:17.066Z,1013.19
2018-07-15T03:13:17.074Z,1013.18
2018-07-15T03:15:10.042Z,1013.20
2018-07-15T03:16:10.027Z,1013.20
2018-07-15T03:18:02.957Z,1013.17
2018-07-15T03:19:02.980Z,1013.17
2018-07-15T03:20:56.442Z,1013.14
2018-07-15T03:21:56.445Z,1013.15
2018-07-15T03:23:49.380Z,1013.18
2018-07-15T03:24:49.400Z,1013.10
2018-07-15T03:26:42.351Z,1013.11
2018-07-15T03:27:42.353Z,1013.10
2018-07-15T03:29:35.283Z,1013.12
2018-07-15T03:30:35.306Z,1013.09
2018-07-15T03:32:28.259Z,1013.12
2018-07-15T03:33:28.261Z,1013.09
2018-07-15T03:35:21.709Z,1013.07
2018-07-15T03:36:21.728Z,1013.04
2018-07-15T03:38:14.681Z,1013.07
2018-07-15T03:39:14.684Z,1013.06
2018-07-15T03:41:07.640Z,1013.05
2018-07-15T03:42:07.635Z,1013.03
2018-07-15T03:44:00.592Z,1013.06
2018-07-15T03:45:00.590Z,1013.04
2018-07-15T03:46:53.593Z,1013.04
2018-07-15T03:47:53.546Z,1013.04
2018-07-15T03:49:46.990Z,1013.02
2018-07-15T03:50:47.011Z,1012.99
2018-07-15T03:52:39.965Z,1013.00
2018-07-15T03:53:39.964Z,1013.01
2018-07-15T03:55:32.921Z,1012.98
2018-07-15T03:56:32.924Z,1013.01
2018-07-15T03:58:26.395Z,1012.99
2018-07-15T03:59:26.361Z,1013.00
2018-07-15T04:01:20.853Z,1013.02
2018-07-15T04:02:20.876Z,1013.03
2018-07-15T04:04:13.810Z,1013.06
2018-07-15T04:05:13.819Z,1013.02
2018-07-15T04:07:06.780Z,1013.05
2018-07-15T04:08:06.783Z,1013.04
2018-07-15T04:10:00.226Z,1013.03
2018-07-15T04:11:00.250Z,1013.02
2018-07-15T04:12:53.205Z,1013.01
2018-07-15T04:13:53.204Z,1013.02
2018-07-15T04:15:46.137Z,1013.00
2018-07-15T04:16:46.161Z,1013.06
2018-07-15T04:18:39.108Z,1013.03
2018-07-15T04:19:39.114Z,1013.07
2018-07-15T04:21:32.048Z,1013.05
2018-07-15T04:22:32.074Z,1013.09
2018-07-15T04:24:25.118Z,1013.08
2018-07-15T04:25:25.126Z,1013.06
2018-07-15T04:27:18.055Z,1013.01
2018-07-15T04:28:18.159Z,1013.00
2018-07-15T04:30:12.056Z,1012.97
2018-07-15T04:31:12.063Z,1012.95
2018-07-15T04:33:10.026Z,1012.98
2018-07-15T04:34:10.034Z,1012.98
2018-07-15T04:36:03.072Z,1012.98
2018-07-15T04:37:03.088Z,1012.99
2018-07-15T04:38:57.061Z,1013.00
2018-07-15T04:39:57.074Z,1013.00
2018-07-15T04:41:50.101Z,1012.98
2018-07-15T04:42:50.130Z,1012.95
2018-07-15T04:44:43.181Z,1012.98
2018-07-15T04:45:43.185Z,1012.96
2018-07-15T04:47:36.620Z,1012.95
2018-07-15T04:48:36.651Z,1012.97
2018-07-15T04:50:29.703Z,1012.99
2018-07-15T04:51:29.706Z,1012.96
2018-07-15T04:53:22.732Z,1013.02
2018-07-15T04:54:22.784Z,1012.95
2018-07-15T04:56:15.807Z,1012.99
2018-07-15T04:57:15.819Z,1013.00
2018-07-15T04:59:09.278Z,1012.98
2018-07-15T05:00:09.287Z,1012.99
2018-07-15T05:02:02.415Z,1013.00
2018-07-15T05:03:02.370Z,1012.99
2018-07-15T05:04:55.387Z,1012.98
2018-07-15T05:05:55.399Z,1013.00
2018-07-15T05:07:49.867Z,1013.04
2018-07-15T05:08:49.890Z,1013.05
2018-07-15T05:10:42.941Z,1013.05
2018-07-15T05:11:42.954Z,1013.07
2018-07-15T05:13:35.986Z,1012.99
2018-07-15T05:14:36.007Z,1013.02
2018-07-15T05:16:29.459Z,1013.01
2018-07-15T05:17:29.469Z,1012.99
2018-07-15T05:19:22.497Z,1013.02
2018-07-15T05:20:22.528Z,1013.03
2018-07-15T05:22:15.573Z,1013.02
2018-07-15T05:23:15.584Z,1013.01
2018-07-15T05:25:08.630Z,1013.03
2018-07-15T05:26:08.644Z,1013.04
2018-07-15T05:28:01.669Z,1013.13
2018-07-15T05:29:01.705Z,1013.11
2018-07-15T05:30:54.742Z,1013.16
2018-07-15T05:31:54.758Z,1013.18
2018-07-15T05:33:49.223Z,1013.14
2018-07-15T05:34:49.277Z,1013.16
2018-07-15T05:36:42.290Z,1013.15
2018-07-15T05:37:42.301Z,1013.17
2018-07-15T05:39:35.328Z,1013.16
2018-07-15T05:40:35.359Z,1013.17
2018-07-15T05:42:28.403Z,1013.24
2018-07-15T05:43:28.424Z,1013.21
2018-07-15T05:45:21.972Z,1013.22
2018-07-15T05:46:21.987Z,1013.19
2018-07-15T05:48:15.010Z,1013.22
2018-07-15T05:49:15.044Z,1013.24
2018-07-15T05:51:08.129Z,1013.29
2018-07-15T05:52:08.098Z,1013.27
2018-07-15T05:54:01.579Z,1013.27
2018-07-15T05:55:01.574Z,1013.27
2018-07-15T05:56:54.608Z,1013.28
2018-07-15T05:57:54.632Z,1013.25
2018-07-15T05:59:47.648Z,1013.26
2018-07-15T06:00:47.681Z,1013.29
2018-07-15T06:02:40.723Z,1013.26
2018-07-15T06:03:40.737Z,1013.31
2018-07-15T06:05:33.776Z,1013.35
2018-07-15T06:06:33.791Z,1013.31
2018-07-15T06:08:26.851Z,1013.30
2018-07-15T06:09:26.848Z,1013.26
2018-07-15T06:11:20.400Z,1013.27
2018-07-15T06:12:20.417Z,1013.31
2018-07-15T06:14:13.521Z,1013.28
2018-07-15T06:15:13.477Z,1013.31
2018-07-15T06:17:06.524Z,1013.30
2018-07-15T06:18:06.573Z,1013.30
2018-07-15T06:19:59.553Z,1013.34
2018-07-15T06:20:59.588Z,1013.35
2018-07-15T06:22:55.602Z,1013.41
2018-07-15T06:23:55.614Z,1013.36
2018-07-15T06:25:48.637Z,1013.36
2018-07-15T06:26:48.671Z,1013.38
2018-07-15T06:28:41.713Z,1013.35
2018-07-15T06:29:41.730Z,1013.33
2018-07-15T06:31:34.771Z,1013.33
2018-07-15T06:32:34.783Z,1013.36
2018-07-15T06:34:27.807Z,1013.35
2018-07-15T06:35:27.842Z,1013.34
2018-07-15T06:37:21.802Z,1013.35
2018-07-15T06:38:21.818Z,1013.33
2018-07-15T06:40:14.840Z,1013.36
2018-07-15T06:41:14.874Z,1013.33
2018-07-15T06:43:07.918Z,1013.32
2018-07-15T06:44:07.937Z,1013.36
2018-07-15T06:46:01.023Z,1013.36
2018-07-15T06:47:00.990Z,1013.35
2018-07-15T06:48:54.029Z,1013.27
2018-07-15T06:49:54.042Z,1013.34
2018-07-15T06:51:47.074Z,1013.29
2018-07-15T06:52:47.105Z,1013.29
2018-07-15T06:54:40.653Z,1013.26
2018-07-15T06:55:40.669Z,1013.28
2018-07-15T06:57:33.709Z,1013.32
2018-07-15T06:58:33.728Z,1013.26
2018-07-15T07:00:27.261Z,1013.29
2018-07-15T07:01:27.298Z,1013.26
2018-07-15T07:03:20.337Z,1013.23
2018-07-15T07:04:20.354Z,1013.26
2018-07-15T07:06:13.383Z,1013.23
2018-07-15T07:07:13.460Z,1013.27
2018-07-15T07:09:06.450Z,1013.19
2018-07-15T07:10:06.466Z,1013.19
2018-07-15T07:11:59.492Z,1013.23
2018-07-15T07:12:59.527Z,1013.25
2018-07-15T07:14:54.000Z,1013.23
2018-07-15T07:15:54.024Z,1013.19
2018-07-15T07:17:47.060Z,1013.23
2018-07-15T07:18:47.083Z,1013.26
2018-07-15T07:20:41.627Z,1013.29
2018-07-15T07:21:41.562Z,1013.24
2018-07-15T07:23:34.603Z,1013.24
2018-07-15T07:24:34.618Z,1013.23
2018-07-15T07:26:30.561Z,1013.18
2018-07-15T07:27:30.594Z,1013.21
2018-07-15T07:29:23.588Z,1013.24
2018-07-15T07:30:23.603Z,1013.23
2018-07-15T07:32:16.555Z,1013.27
2018-07-15T07:33:16.586Z,1013.22
2018-07-15T07:35:09.588Z,1013.23
2018-07-15T07:36:09.602Z,1013.20
2018-07-15T07:38:02.626Z,1013.26
2018-07-15T07:39:02.668Z,1013.24
2018-07-15T07:40:55.704Z,1013.26
2018-07-15T07:41:55.714Z,1013.30
2018-07-15T07:43:48.759Z,1013.34
2018-07-15T07:44:48.776Z,1013.25
2018-07-15T07:46:41.793Z,1013.24
2018-07-15T07:47:41.825Z,1013.23
2018-07-15T07:49:36.304Z,1013.27
2018-07-15T07:50:36.319Z,1013.25
2018-07-15T07:52:29.341Z,1013.22
2018-07-15T07:53:29.370Z,1013.22
2018-07-15T07:55:22.419Z,1013.20
2018-07-15T07:56:22.430Z,1013.18
2018-07-15T07:58:15.455Z,1013.18
2018-07-15T07:59:15.485Z,1013.19
2018-07-15T08:01:08.970Z,1013.24
2018-07-15T08:02:08.540Z,1013.17
2018-07-15T08:04:01.584Z,1013.14
2018-07-15T08:05:01.597Z,1013.19
2018-07-15T08:06:54.621Z,1013.17
2018-07-15T08:07:54.654Z,1013.21
2018-07-15T08:09:48.593Z,1013.20
2018-07-15T08:10:48.604Z,1013.27
2018-07-15T08:12:41.563Z,1013.28
2018-07-15T08:13:41.586Z,1013.22
2018-07-15T08:15:34.631Z,1013.20
2018-07-15T08:16:34.639Z,1013.15
2018-07-15T08:18:27.666Z,1013.15
2018-07-15T08:19:27.697Z,1013.19
2018-07-15T08:21:20.745Z,1013.18
2018-07-15T08:22:20.754Z,1013.17
2018-07-15T08:24:13.788Z,1013.20
2018-07-15T08:25:13.812Z,1013.18
2018-07-15T08:27:06.856Z,1013.19
2018-07-15T08:28:06.935Z,1013.15
2018-07-15T08:29:59.912Z,1013.18
2018-07-15T08:30:59.921Z,1013.17
2018-07-15T08:32:52.949Z,1013.16
2018-07-15T08:33:52.977Z,1013.21
2018-07-15T08:35:45.919Z,1013.22
2018-07-15T08:36:45.927Z,1013.19
2018-07-15T08:38:38.856Z,1013.14
2018-07-15T08:39:38.884Z,1013.15
2018-07-15T08:41:31.935Z,1013.15
2018-07-15T08:42:31.948Z,1013.09
2018-07-15T08:44:25.045Z,1013.16
2018-07-15T08:45:25.000Z,1013.15
2018-07-15T08:47:18.047Z,1013.16
2018-07-15T08:48:18.059Z,1013.12
2018-07-15T08:50:11.093Z,1013.18
2018-07-15T08:51:11.119Z,1013.16
2018-07-15T08:53:04.180Z,1013.17
2018-07-15T08:54:04.176Z,1013.19
2018-07-15T08:55:57.219Z,1013.18
2018-07-15T08:56:57.228Z,1013.18
2018-07-15T08:58:50.266Z,1013.15
2018-07-15T08:59:50.284Z,1013.16
2018-07-15T09:01:43.333Z,1013.07
2018-07-15T09:02:43.346Z,1013.12
2018-07-15T09:04:36.369Z,1013.14
2018-07-15T09:05:36.451Z,1013.13
2018-07-15T09:07:30.012Z,1013.09
2018-07-15T09:08:29.968Z,1013.15
2018-07-15T09:10:22.998Z,1013.17
2018-07-15T09:11:23.021Z,1013.16
2018-07-15T09:13:17.502Z,1013.09
2018-07-15T09:14:17.511Z,1013.11
2018-07-15T09:16:10.606Z,1013.09
2018-07-15T09:17:10.569Z,1013.12
2018-07-15T09:19:03.615Z,1013.07
2018-07-15T09:20:03.625Z,1013.03
2018-07-15T09:21:56.728Z,1013.00
2018-07-15T09:22:56.695Z,1013.00
2018-07-15T09:24:49.716Z,1013.02
2018-07-15T09:25:49.735Z,1013.01
2018-07-15T09:27:42.802Z,1012.98
2018-07-15T09:28:42.792Z,1012.99
2018-07-15T09:30:35.823Z,1013.02
2018-07-15T09:31:35.848Z,1013.05
2018-07-15T09:33:28.897Z,1013.02
2018-07-15T09:34:28.906Z,1012.98
2018-07-15T09:36:21.935Z,1012.96
2018-07-15T09:37:21.964Z,1013.00
2018-07-15T09:39:15.008Z,1012.97
2018-07-15T09:40:15.017Z,1012.97
2018-07-15T09:42:08.047Z,1012.97
2018-07-15T09:43:08.076Z,1012.97
2018-07-15T09:45:02.046Z,1013.01
2018-07-15T09:46:02.052Z,1013.00
2018-07-15T09:47:55.099Z,1012.96
2018-07-15T09:48:55.111Z,1012.94
2018-07-15T09:50:48.143Z,1012.95
2018-07-15T09:51:48.166Z,1012.93
2018-07-15T09:53:41.214Z,1012.93
2018-07-15T09:54:41.223Z,1012.91
2018-07-15T09:56:44.150Z,1012.98
2018-07-15T09:57:44.176Z,1012.99
2018-07-15T09:59:37.123Z,1012.98
2018-07-15T10:00:37.140Z,1012.92
2018-07-15T10:02:30.314Z,1012.91
2018-07-15T10:03:30.254Z,1012.91
2018-07-15T10:05:23.242Z,1012.86
2018-07-15T10:06:23.201Z,1012.83
2018-07-15T10:08:16.143Z,1012.80
2018-07-15T10:09:16.152Z,1012.83
2018-07-15T10:11:09.120Z,1012.80
2018-07-15T10:12:09.124Z,1012.83
2018-07-15T10:14:02.065Z,1012.76
2018-07-15T10:15:02.073Z,1012.82
2018-07-15T10:16:55.007Z,1012.77
2018-07-15T10:17:55.031Z,1012.79
2018-07-15T10:19:47.970Z,1012.79
2018-07-15T10:20:47.978Z,1012.71
2018-07-15T10:22:40.915Z,1012.74
2018-07-15T10:23:40.938Z,1012.82
2018-07-15T10:25:34.968Z,1012.75
2018-07-15T10:26:33.951Z,1012.74
2018-07-15T10:28:26.851Z,1012.71
2018-07-15T10:29:26.846Z,1012.73
2018-07-15T10:31:19.795Z,1012.68
2018-07-15T10:32:19.798Z,1012.71
2018-07-15T10:34:12.744Z,1012.79
2018-07-15T10:35:12.751Z,1012.72
2018-07-15T10:37:05.675Z,1012.60
2018-07-15T10:38:05.702Z,1012.65
2018-07-15T10:39:58.678Z,1012.65
2018-07-15T10:40:58.653Z,1012.64
2018-07-15T10:42:51.577Z,1012.72
2018-07-15T10:43:51.604Z,1012.66
2018-07-15T10:45:44.545Z,1012.61
2018-07-15T10:46:44.555Z,1012.59
2018-07-15T10:48:37.501Z,1012.59
2018-07-15T10:49:37.527Z,1012.63
2018-07-15T10:51:30.490Z,1012.59
2018-07-15T10:52:30.482Z,1012.56
2018-07-15T10:54:23.429Z,1012.56
2018-07-15T10:55:23.435Z,1012.65
2018-07-15T10:57:16.362Z,1012.60
2018-07-15T10:58:16.389Z,1012.62
2018-07-15T11:00:09.368Z,1012.56
2018-07-15T11:01:09.348Z,1012.54
2018-07-15T11:03:02.266Z,1012.60
2018-07-15T11:04:02.295Z,1012.58
2018-07-15T11:05:55.259Z,1012.57
2018-07-15T11:06:55.251Z,1012.55
2018-07-15T11:08:48.193Z,1012.54
2018-07-15T11:09:48.202Z,1012.51
2018-07-15T11:11:41.166Z,1012.50
2018-07-15T11:12:41.157Z,1012.45
2018-07-15T11:14:34.117Z,1012.52
2018-07-15T11:15:34.114Z,1012.44
2018-07-15T11:17:27.049Z,1012.44
2018-07-15T11:18:27.065Z,1012.45
2018-07-15T11:20:20.012Z,1012.45
2018-07-15T11:21:20.058Z,1012.38
2018-07-15T11:23:12.983Z,1012.39
2018-07-15T11:24:12.990Z,1012.34
2018-07-15T11:26:05.979Z,1012.27
2018-07-15T11:27:05.941Z,1012.30
2018-07-15T11:28:58.866Z,1012.26
2018-07-15T11:29:58.894Z,1012.23
2018-07-15T11:31:51.844Z,1012.27
2018-07-15T11:32:51.847Z,1012.25
2018-07-15T11:34:44.784Z,1012.25
2018-07-15T11:35:44.793Z,1012.25
2018-07-15T11:37:37.713Z,1012.26
2018-07-15T11:38:37.742Z,1012.21
2018-07-15T11:40:30.703Z,1012.24
2018-07-15T11:41:30.698Z,1012.20
2018-07-15T11:43:23.623Z,1012.25
2018-07-15T11:44:23.655Z,1012.16
2018-07-15T11:46:16.594Z,1012.19
2018-07-15T11:47:16.600Z,1012.19
2018-07-15T11:49:09.526Z,1012.10
2018-07-15T11:50:09.553Z,1012.16
2018-07-15T11:52:02.497Z,1012.16
2018-07-15T11:53:02.509Z,1012.11
2018-07-15T11:54:55.457Z,1012.12
2018-07-15T11:55:55.463Z,1012.10
2018-07-15T11:57:48.470Z,1012.08
2018-07-15T11:58:48.424Z,1012.03
2018-07-15T12:00:41.370Z,1012.07
2018-07-15T12:01:41.414Z,1012.02
2018-07-15T12:03:34.321Z,1011.97
2018-07-15T12:04:34.332Z,1011.97
2018-07-15T12:06:27.277Z,1012.02
2018-07-15T12:07:27.322Z,1012.00
2018-07-15T12:09:20.207Z,1011.97
2018-07-15T12:10:20.235Z,1011.98
2018-07-15T12:12:13.329Z,1012.03
2018-07-15T12:13:13.245Z,1011.94
2018-07-15T12:15:06.119Z,1011.94
2018-07-15T12:16:06.144Z,1011.92
2018-07-15T12:17:59.089Z,1011.85
2018-07-15T12:18:59.095Z,1011.88
2018-07-15T12:20:52.043Z,1011.90
2018-07-15T12:21:52.048Z,1011.83
2018-07-15T12:23:44.973Z,1011.89
2018-07-15T12:24:45.012Z,1011.98
2018-07-15T12:26:37.955Z,1011.90
2018-07-15T12:27:37.963Z,1011.84
2018-07-15T12:29:30.892Z,1011.91
2018-07-15T12:30:30.918Z,1011.78
2018-07-15T12:32:23.867Z,1011.79
2018-07-15T12:33:23.870Z,1011.78
2018-07-15T12:35:16.794Z,1011.73
2018-07-15T12:36:16.822Z,1011.70
2018-07-15T12:38:09.766Z,1011.71
2018-07-15T12:39:09.774Z,1011.71
2018-07-15T12:41:02.718Z,1011.67
2018-07-15T12:42:02.726Z,1011.67
2018-07-15T12:43:55.654Z,1011.69
2018-07-15T12:44:55.681Z,1011.61
2018-07-15T12:46:48.640Z,1011.57
2018-07-15T12:47:48.637Z,1011.55
2018-07-15T12:49:41.561Z,1011.53
2018-07-15T12:50:41.589Z,1011.56
2018-07-15T12:52:34.549Z,1011.53
2018-07-15T12:53:34.543Z,1011.53
2018-07-15T12:55:27.467Z,1011.54
2018-07-15T12:56:27.496Z,1011.55
2018-07-15T12:58:20.453Z,1011.48
2018-07-15T12:59:20.455Z,1011.42
2018-07-15T13:01:13.417Z,1011.39
2018-07-15T13:02:13.408Z,1011.43
2018-07-15T13:04:06.338Z,1011.37
2018-07-15T13:05:06.368Z,1011.40
2018-07-15T13:06:59.343Z,1011.35
2018-07-15T13:07:59.317Z,1011.38
2018-07-15T13:09:52.268Z,1011.38
2018-07-15T13:10:52.296Z,1011.30
2018-07-15T13:12:45.231Z,1011.28
2018-07-15T13:13:45.224Z,1011.28
2018-07-15T13:15:38.150Z,1011.26
2018-07-15T13:16:38.181Z,1011.21
2018-07-15T13:18:31.164Z,1011.18
2018-07-15T13:19:31.132Z,1011.17
2018-07-15T13:21:24.061Z,1011.15
2018-07-15T13:22:24.088Z,1011.10
2018-07-15T13:24:17.037Z,1011.12
2018-07-15T13:25:17.043Z,1011.14
2018-07-15T13:27:09.970Z,1011.08
2018-07-15T13:28:10.000Z,1011.06
2018-07-15T13:30:02.943Z,1011.04
2018-07-15T13:31:02.952Z,1011.05
2018-07-15T13:32:55.902Z,1011.05
2018-07-15T13:33:55.903Z,1011.09
2018-07-15T13:35:48.827Z,1011.05
2018-07-15T13:36:48.856Z,1011.01
2018-07-15T13:38:41.800Z,1011.05
2018-07-15T13:39:41.807Z,1011.04
2018-07-15T13:41:34.778Z,1011.06
2018-07-15T13:42:34.769Z,1011.03
2018-07-15T13:44:27.722Z,1011.01
2018-07-15T13:45:27.724Z,1011.03
2018-07-15T13:47:20.649Z,1011.01
2018-07-15T13:48:20.677Z,1011.00
2018-07-15T13:50:13.619Z,1010.99
2018-07-15T13:51:13.633Z,1011.04
2018-07-15T13:53:06.573Z,1010.99
2018-07-15T13:54:06.583Z,1010.99
2018-07-15T13:55:59.519Z,1010.94
2018-07-15T13:56:59.538Z,1010.92
2018-07-15T13:58:52.482Z,1010.92
2018-07-15T13:59:52.493Z,1010.93
2018-07-15T14:01:45.415Z,1010.94
2018-07-15T14:02:45.441Z,1010.91
2018-07-15T14:04:38.385Z,1010.91
2018-07-15T14:05:38.393Z,1010.91
2018-07-15T14:07:31.336Z,1010.93
2018-07-15T14:08:31.355Z,1010.89
2018-07-15T14:10:24.290Z,1010.92
2018-07-15T14:11:24.300Z,1010.94
2018-07-15T14:13:17.226Z,1010.91
2018-07-15T14:14:17.256Z,1010.85
2018-07-15T14:16:10.204Z,1010.82
2018-07-15T14:17:10.208Z,1010.81
2018-07-15T14:19:03.156Z,1010.83
2018-07-15T14:20:03.163Z,1010.81
2018-07-15T14:21:56.102Z,1010.79
2018-07-15T14:22:56.168Z,1010.72
2018-07-15T14:24:49.128Z,1010.79
2018-07-15T14:25:49.110Z,1010.71
2018-07-15T14:27:42.034Z,1010.68
2018-07-15T14:28:42.063Z,1010.64
2018-07-15T14:30:35.005Z,1010.67
2018-07-15T14:31:35.014Z,1010.63
2018-07-15T14:33:27.937Z,1010.60
2018-07-15T14:34:27.966Z,1010.61
2018-07-15T14:36:20.912Z,1010.63
2018-07-15T14:37:20.923Z,1010.63
2018-07-15T14:39:13.861Z,1010.61
2018-07-15T14:40:13.870Z,1010.63
2018-07-15T14:42:06.795Z,1010.62
2018-07-15T14:43:06.828Z,1010.58
2018-07-15T14:44:59.775Z,1010.51
2018-07-15T14:45:59.780Z,1010.49
2018-07-15T14:47:52.702Z,1010.51
2018-07-15T14:48:52.731Z,1010.51
2018-07-15T14:50:45.675Z,1010.54
2018-07-15T14:51:45.686Z,1010.54
2018-07-15T14:53:38.611Z,1010.46
2018-07-15T14:54:38.636Z,1010.49
2018-07-15T14:56:31.581Z,1010.53
2018-07-15T14:57:31.596Z,1010.44
2018-07-15T14:59:24.509Z,1010.46
2018-07-15T15:00:24.541Z,1010.42
2018-07-15T15:02:17.488Z,1010.43
2018-07-15T15:03:17.491Z,1010.44
2018-07-15T15:05:10.439Z,1010.48
2018-07-15T15:06:10.444Z,1010.48
2018-07-15T15:08:03.372Z,1010.56
2018-07-15T15:09:03.403Z,1010.47
2018-07-15T15:10:56.348Z,1010.41
2018-07-15T15:11:56.352Z,1010.46
2018-07-15T15:13:49.278Z,1010.40
2018-07-15T15:14:49.306Z,1010.41
2018-07-15T15:16:42.257Z,1010.42
2018-07-15T15:17:42.262Z,1010.47
2018-07-15T15:19:35.185Z,1010.44
2018-07-15T15:20:35.214Z,1010.40
2018-07-15T15:22:28.213Z,1010.42
2018-07-15T15:23:28.172Z,1010.44
2018-07-15T15:25:21.096Z,1010.40
2018-07-15T15:26:21.130Z,1010.43
2018-07-15T15:28:14.068Z,1010.38
2018-07-15T15:29:14.085Z,1010.40
2018-07-15T15:31:07.031Z,1010.41
2018-07-15T15:32:07.036Z,1010.41
2018-07-15T15:33:59.958Z,1010.43
2018-07-15T15:34:59.988Z,1010.39
2018-07-15T15:36:52.928Z,1010.36
2018-07-15T15:37:52.939Z,1010.39
2018-07-15T15:39:45.861Z,1010.37
2018-07-15T15:40:45.907Z,1010.34
2018-07-15T15:42:38.835Z,1010.35
2018-07-15T15:43:38.844Z,1010.34
2018-07-15T15:45:31.772Z,1010.33
2018-07-15T15:46:31.799Z,1010.36
2018-07-15T15:48:24.929Z,1010.28
2018-07-15T15:49:24.936Z,1010.28
2018-07-15T15:51:17.869Z,1010.34
2018-07-15T15:52:17.895Z,1010.23
2018-07-15T15:54:11.054Z,1010.23
2018-07-15T15:55:11.047Z,1010.20
2018-07-15T15:57:03.998Z,1010.23
2018-07-15T15:58:04.047Z,1010.17
2018-07-15T15:59:56.927Z,1010.22
2018-07-15T16:00:56.955Z,1010.15
2018-07-15T16:02:49.902Z,1010.25
2018-07-15T16:03:49.908Z,1010.23
2018-07-15T16:05:42.840Z,1010.21
2018-07-15T16:06:42.867Z,1010.13
2018-07-15T16:08:36.020Z,1010.12
2018-07-15T16:09:36.029Z,1010.15
2018-07-15T16:11:28.955Z,1010.07
2018-07-15T16:12:28.984Z,1010.13
2018-07-15T16:14:21.926Z,1010.10
2018-07-15T16:15:21.936Z,1010.04
2018-07-15T16:17:14.879Z,1010.01
2018-07-15T16:18:14.888Z,1010.03
2018-07-15T16:20:07.814Z,1010.04
2018-07-15T16:21:07.839Z,1009.97
2018-07-15T16:23:00.992Z,1010.02
2018-07-15T16:24:01.000Z,1010.04
2018-07-15T16:25:53.923Z,1010.03
2018-07-15T16:26:53.952Z,1010.05
2018-07-15T16:28:46.909Z,1010.09
2018-07-15T16:29:46.915Z,1010.08
2018-07-15T16:31:39.839Z,1010.05
2018-07-15T16:32:39.864Z,1010.02
2018-07-15T16:34:32.811Z,1010.04
2018-07-15T16:35:32.819Z,1010.02
2018-07-15T16:37:25.752Z,1010.03
2018-07-15T16:38:25.772Z,1010.02
2018-07-15T16:40:18.714Z,1010.02
2018-07-15T16:41:18.723Z,1010.00
2018-07-15T16:43:11.688Z,1010.03
2018-07-15T16:44:11.676Z,1009.99
2018-07-15T16:46:04.607Z,1010.01
2018-07-15T16:47:04.628Z,1010.00
2018-07-15T16:48:57.573Z,1009.97
2018-07-15T16:49:57.651Z,1009.94
2018-07-15T16:51:50.517Z,1009.95
2018-07-15T16:52:50.535Z,1009.97
2018-07-15T16:54:43.494Z,1010.02
2018-07-15T16:55:43.519Z,1010.01
2018-07-15T16:57:37.420Z,1010.02
2018-07-15T16:58:37.453Z,1010.02
2018-07-15T17:00:30.406Z,1009.99
2018-07-15T17:01:30.421Z,1009.96
2018-07-15T17:03:23.340Z,1010.00
2018-07-15T17:04:23.369Z,1009.96
2018-07-15T17:06:16.321Z,1009.97
2018-07-15T17:07:16.332Z,1009.96
2018-07-15T17:09:09.273Z,1009.99
2018-07-15T17:10:09.281Z,1009.95
2018-07-15T17:12:02.218Z,1009.97
2018-07-15T17:13:02.240Z,1009.97
2018-07-15T17:14:55.184Z,1009.98
2018-07-15T17:15:55.194Z,1010.00
2018-07-15T17:17:48.118Z,1009.97
2018-07-15T17:18:48.148Z,1010.02
2018-07-15T17:20:41.194Z,1010.04
2018-07-15T17:21:41.099Z,1010.06
2018-07-15T17:23:34.025Z,1009.96
2018-07-15T17:24:34.052Z,1009.97
2018-07-15T17:26:27.027Z,1009.99